Pagina principale
METAR-TAF:

METAR-TAF

Aeroporti :

Aeroporto di Belgrado-Nikola Tesla

Belgrado, Serbia

latitudine: 44-49N, longitudine: 020-17E, altezza: 96 m

Osservazione

Il bollettino è stato emesso 37 minuti fa, alle 00:30 UTC
Vento calmo
Temperature 13°C
Umidità 77%
Pressione 1018 hPa
Visibilità 10 km o più
nessuna nube inferiore a 1500 m e nessun cumulonembo

METAR: LYBE 150030Z 00000KT CAVOK 13/09 Q1018 NOSIG

Ora: 03:07 (01:07 UTC)

Previsione

Il bollettino è stato emesso 2 ore e 7 minuti fa, alle 23:00 UTC
Previsione valida dal 15 alle 00 UTC al 15 alle 24 UTC
Vento 5 kt da ovest/nord-ovest
Visibilità 10 km o più
nessuna nube inferiore a 1500 m e nessun cumulonembo
Evoluzione graduale
dal 15 alle 09 UTC al 15 alle 11 UTC
Vento 12 kt da nord
Evoluzione graduale
dal 15 alle 16 UTC al 15 alle 18 UTC
Vento 5 kt da ovest

TAF: LYBE 142300Z 1500/1524 29005KT CAVOK TX25/1513Z TN11/1503Z BECMG 1509/1511 35012KT BECMG 1516/1518 28005KT

Osservazioni e previsioni meteorologiche di più di 4000 aeroporti (messaggi METAR e TAF).

Le stazioni disponibili sono rappresentate dai dischi gialli e rossi sulla carta.

Puntare il mouse per vedere il nome della stazione.

Clicca sopra per visualizzare le osservazioni e previsioni meteorologiche.

Per cambiare la mappa : fare clic sui pulsanti verdi con una croce nera per ingrandire, il pulsante verde con un trattino per diminuire, o sulla freccia verde per le mappe adiacenti.


METAR-TAF: